sensor_id;sensor_type;location;lat;lon;timestamp;P1;durP1;ratioP1;P2;durP2;ratioP2
52041;SDS011;38052;45.944;13.624;2023-04-08T00:01:55;23.88;;;17.35;;
52041;SDS011;38052;45.944;13.624;2023-04-08T00:04:21;25.05;;;17.98;;
52041;SDS011;38052;45.944;13.624;2023-04-08T00:06:48;30.52;;;18.95;;
52041;SDS011;38052;45.944;13.624;2023-04-08T00:09:14;27.10;;;17.38;;
52041;SDS011;38052;45.944;13.624;2023-04-08T00:11:41;22.77;;;17.17;;
52041;SDS011;38052;45.944;13.624;2023-04-08T00:14:07;23.58;;;16.73;;
52041;SDS011;38052;45.944;13.624;2023-04-08T00:16:33;21.48;;;16.52;;
52041;SDS011;38052;45.944;13.624;2023-04-08T00:19:00;22.70;;;16.00;;
52041;SDS011;38052;45.944;13.624;2023-04-08T00:21:26;23.63;;;16.20;;
52041;SDS011;38052;45.944;13.624;2023-04-08T00:23:52;23.45;;;16.20;;
52041;SDS011;38052;45.944;13.624;2023-04-08T00:26:18;23.95;;;16.95;;
52041;SDS011;38052;45.944;13.624;2023-04-08T00:28:45;18.73;;;13.93;;
52041;SDS011;38052;45.944;13.624;2023-04-08T00:31:11;25.63;;;16.35;;
52041;SDS011;38052;45.944;13.624;2023-04-08T00:33:38;23.30;;;16.30;;
52041;SDS011;38052;45.944;13.624;2023-04-08T00:36:04;19.38;;;15.18;;
52041;SDS011;38052;45.944;13.624;2023-04-08T00:38:31;24.45;;;15.18;;
52041;SDS011;38052;45.944;13.624;2023-04-08T00:40:58;20.90;;;14.07;;
52041;SDS011;38052;45.944;13.624;2023-04-08T00:43:24;18.52;;;14.18;;
52041;SDS011;38052;45.944;13.624;2023-04-08T00:45:51;19.60;;;14.63;;
52041;SDS011;38052;45.944;13.624;2023-04-08T00:48:17;20.33;;;14.48;;
52041;SDS011;38052;45.944;13.624;2023-04-08T00:50:43;20.60;;;14.25;;
52041;SDS011;38052;45.944;13.624;2023-04-08T00:53:11;21.33;;;14.05;;
52041;SDS011;38052;45.944;13.624;2023-04-08T00:55:37;18.63;;;14.10;;
52041;SDS011;38052;45.944;13.624;2023-04-08T00:58:04;25.83;;;14.55;;
52041;SDS011;38052;45.944;13.624;2023-04-08T01:00:30;19.90;;;13.77;;
52041;SDS011;38052;45.944;13.624;2023-04-08T01:08:00;19.88;;;15.05;;
52041;SDS011;38052;45.944;13.624;2023-04-08T01:10:29;18.65;;;13.77;;
52041;SDS011;38052;45.944;13.624;2023-04-08T01:12:57;21.58;;;14.05;;
52041;SDS011;38052;45.944;13.624;2023-04-08T01:15:27;20.95;;;14.75;;
52041;SDS011;38052;45.944;13.624;2023-04-08T01:17:54;21.48;;;15.38;;
52041;SDS011;38052;45.944;13.624;2023-04-08T01:20:21;19.17;;;13.50;;
52041;SDS011;38052;45.944;13.624;2023-04-08T01:25:16;21.95;;;15.32;;
52041;SDS011;38052;45.944;13.624;2023-04-08T01:27:44;22.15;;;14.93;;
52041;SDS011;38052;45.944;13.624;2023-04-08T01:30:11;20.50;;;13.82;;
52041;SDS011;38052;45.944;13.624;2023-04-08T01:32:39;21.17;;;14.02;;
52041;SDS011;38052;45.944;13.624;2023-04-08T01:35:06;19.70;;;14.18;;
52041;SDS011;38052;45.944;13.624;2023-04-08T01:37:33;21.05;;;14.95;;
52041;SDS011;38052;45.944;13.624;2023-04-08T01:39:59;19.45;;;13.70;;
52041;SDS011;38052;45.944;13.624;2023-04-08T01:42:26;22.60;;;14.65;;
52041;SDS011;38052;45.944;13.624;2023-04-08T01:44:54;22.35;;;14.27;;
52041;SDS011;38052;45.944;13.624;2023-04-08T01:47:21;17.42;;;12.40;;
52041;SDS011;38052;45.944;13.624;2023-04-08T01:49:48;22.52;;;15.05;;
52041;SDS011;38052;45.944;13.624;2023-04-08T01:52:15;21.25;;;14.90;;
52041;SDS011;38052;45.944;13.624;2023-04-08T01:54:43;21.17;;;14.02;;
52041;SDS011;38052;45.944;13.624;2023-04-08T01:57:10;17.13;;;12.50;;
52041;SDS011;38052;45.944;13.624;2023-04-08T01:59:37;21.13;;;15.02;;
52041;SDS011;38052;45.944;13.624;2023-04-08T02:02:04;24.85;;;15.00;;
52041;SDS011;38052;45.944;13.624;2023-04-08T02:04:30;23.38;;;14.40;;
52041;SDS011;38052;45.944;13.624;2023-04-08T02:06:58;21.30;;;15.40;;
52041;SDS011;38052;45.944;13.624;2023-04-08T02:09:26;25.08;;;13.57;;
52041;SDS011;38052;45.944;13.624;2023-04-08T02:11:52;20.00;;;13.63;;
52041;SDS011;38052;45.944;13.624;2023-04-08T02:14:18;19.13;;;13.65;;
52041;SDS011;38052;45.944;13.624;2023-04-08T02:16:48;22.00;;;13.73;;
52041;SDS011;38052;45.944;13.624;2023-04-08T02:22:04;20.02;;;13.23;;
52041;SDS011;38052;45.944;13.624;2023-04-08T02:24:31;20.40;;;13.10;;
52041;SDS011;38052;45.944;13.624;2023-04-08T02:26:58;18.98;;;13.43;;
52041;SDS011;38052;45.944;13.624;2023-04-08T02:29:25;20.55;;;13.98;;
52041;SDS011;38052;45.944;13.624;2023-04-08T02:31:51;22.02;;;15.25;;
52041;SDS011;38052;45.944;13.624;2023-04-08T02:34:18;20.73;;;14.93;;
52041;SDS011;38052;45.944;13.624;2023-04-08T02:36:46;20.42;;;13.68;;
52041;SDS011;38052;45.944;13.624;2023-04-08T02:39:12;21.65;;;13.35;;
52041;SDS011;38052;45.944;13.624;2023-04-08T02:41:38;24.52;;;14.98;;
52041;SDS011;38052;45.944;13.624;2023-04-08T02:44:04;20.08;;;14.45;;
52041;SDS011;38052;45.944;13.624;2023-04-08T02:46:30;18.33;;;13.25;;
52041;SDS011;38052;45.944;13.624;2023-04-08T02:48:57;16.85;;;13.02;;
52041;SDS011;38052;45.944;13.624;2023-04-08T02:51:23;26.25;;;14.40;;
52041;SDS011;38052;45.944;13.624;2023-04-08T02:53:50;17.15;;;12.32;;
52041;SDS011;38052;45.944;13.624;2023-04-08T02:56:16;19.13;;;12.60;;
52041;SDS011;38052;45.944;13.624;2023-04-08T02:58:42;20.10;;;14.32;;
52041;SDS011;38052;45.944;13.624;2023-04-08T03:01:09;18.80;;;11.93;;
52041;SDS011;38052;45.944;13.624;2023-04-08T03:03:35;19.55;;;13.93;;
52041;SDS011;38052;45.944;13.624;2023-04-08T03:06:02;20.55;;;13.98;;
52041;SDS011;38052;45.944;13.624;2023-04-08T03:08:28;18.80;;;12.65;;
52041;SDS011;38052;45.944;13.624;2023-04-08T03:10:56;16.08;;;11.90;;
52041;SDS011;38052;45.944;13.624;2023-04-08T03:13:23;18.92;;;12.65;;
52041;SDS011;38052;45.944;13.624;2023-04-08T03:15:49;19.38;;;12.48;;
52041;SDS011;38052;45.944;13.624;2023-04-08T03:18:16;17.95;;;10.35;;
52041;SDS011;38052;45.944;13.624;2023-04-08T03:20:42;16.25;;;10.52;;
52041;SDS011;38052;45.944;13.624;2023-04-08T03:23:09;20.10;;;10.73;;
52041;SDS011;38052;45.944;13.624;2023-04-08T03:25:35;15.85;;;9.30;;
52041;SDS011;38052;45.944;13.624;2023-04-08T03:28:01;19.23;;;11.60;;
52041;SDS011;38052;45.944;13.624;2023-04-08T03:30:28;14.40;;;10.25;;
52041;SDS011;38052;45.944;13.624;2023-04-08T03:32:55;14.00;;;9.75;;
52041;SDS011;38052;45.944;13.624;2023-04-08T03:35:21;15.00;;;9.90;;
52041;SDS011;38052;45.944;13.624;2023-04-08T03:37:47;16.00;;;10.07;;
52041;SDS011;38052;45.944;13.624;2023-04-08T03:40:14;15.52;;;9.88;;
52041;SDS011;38052;45.944;13.624;2023-04-08T03:42:40;23.15;;;10.95;;
52041;SDS011;38052;45.944;13.624;2023-04-08T03:45:06;19.30;;;11.07;;
52041;SDS011;38052;45.944;13.624;2023-04-08T03:47:32;16.65;;;11.23;;
52041;SDS011;38052;45.944;13.624;2023-04-08T03:49:59;15.20;;;10.55;;
52041;SDS011;38052;45.944;13.624;2023-04-08T03:52:25;16.83;;;10.45;;
52041;SDS011;38052;45.944;13.624;2023-04-08T03:54:52;17.58;;;9.73;;
52041;SDS011;38052;45.944;13.624;2023-04-08T03:57:18;14.52;;;9.23;;
52041;SDS011;38052;45.944;13.624;2023-04-08T03:59:44;15.65;;;9.82;;
52041;SDS011;38052;45.944;13.624;2023-04-08T04:02:11;16.55;;;10.80;;
52041;SDS011;38052;45.944;13.624;2023-04-08T04:04:37;15.63;;;10.48;;
52041;SDS011;38052;45.944;13.624;2023-04-08T04:07:03;16.67;;;10.63;;
52041;SDS011;38052;45.944;13.624;2023-04-08T04:09:29;16.00;;;10.32;;
52041;SDS011;38052;45.944;13.624;2023-04-08T04:11:55;16.35;;;11.13;;
52041;SDS011;38052;45.944;13.624;2023-04-08T04:14:21;14.05;;;8.80;;
52041;SDS011;38052;45.944;13.624;2023-04-08T04:16:48;16.85;;;9.68;;
52041;SDS011;38052;45.944;13.624;2023-04-08T04:19:14;19.17;;;10.85;;
52041;SDS011;38052;45.944;13.624;2023-04-08T04:21:42;13.93;;;9.35;;
52041;SDS011;38052;45.944;13.624;2023-04-08T04:24:08;19.40;;;9.93;;
52041;SDS011;38052;45.944;13.624;2023-04-08T04:26:35;15.85;;;8.43;;
52041;SDS011;38052;45.944;13.624;2023-04-08T04:29:02;15.70;;;8.32;;
52041;SDS011;38052;45.944;13.624;2023-04-08T04:31:28;15.98;;;9.23;;
52041;SDS011;38052;45.944;13.624;2023-04-08T04:33:54;18.38;;;9.88;;
52041;SDS011;38052;45.944;13.624;2023-04-08T04:36:20;17.10;;;10.10;;
52041;SDS011;38052;45.944;13.624;2023-04-08T04:38:48;18.38;;;9.15;;
52041;SDS011;38052;45.944;13.624;2023-04-08T04:41:14;16.40;;;11.43;;
52041;SDS011;38052;45.944;13.624;2023-04-08T04:43:41;16.42;;;10.98;;
52041;SDS011;38052;45.944;13.624;2023-04-08T04:46:08;15.20;;;10.25;;
52041;SDS011;38052;45.944;13.624;2023-04-08T04:48:34;17.73;;;11.20;;
52041;SDS011;38052;45.944;13.624;2023-04-08T04:51:01;19.10;;;12.15;;
52041;SDS011;38052;45.944;13.624;2023-04-08T04:53:28;18.85;;;10.88;;
52041;SDS011;38052;45.944;13.624;2023-04-08T04:55:54;19.55;;;11.73;;
52041;SDS011;38052;45.944;13.624;2023-04-08T04:58:21;19.90;;;11.02;;
52041;SDS011;38052;45.944;13.624;2023-04-08T05:00:47;21.05;;;12.38;;
52041;SDS011;38052;45.944;13.624;2023-04-08T05:03:14;20.10;;;12.13;;
52041;SDS011;38052;45.944;13.624;2023-04-08T05:05:40;22.65;;;12.82;;
52041;SDS011;38052;45.944;13.624;2023-04-08T05:08:06;22.40;;;14.48;;
52041;SDS011;38052;45.944;13.624;2023-04-08T05:10:33;20.90;;;12.48;;
52041;SDS011;38052;45.944;13.624;2023-04-08T05:13:00;17.55;;;12.90;;
52041;SDS011;38052;45.944;13.624;2023-04-08T05:15:26;18.77;;;12.57;;
52041;SDS011;38052;45.944;13.624;2023-04-08T05:17:52;20.23;;;11.98;;
52041;SDS011;38052;45.944;13.624;2023-04-08T05:20:19;21.80;;;12.02;;
52041;SDS011;38052;45.944;13.624;2023-04-08T05:22:45;19.65;;;12.25;;
52041;SDS011;38052;45.944;13.624;2023-04-08T05:25:11;16.65;;;12.23;;
52041;SDS011;38052;45.944;13.624;2023-04-08T05:27:38;20.10;;;12.52;;
52041;SDS011;38052;45.944;13.624;2023-04-08T05:30:04;16.40;;;11.23;;
52041;SDS011;38052;45.944;13.624;2023-04-08T05:32:31;20.80;;;12.45;;
52041;SDS011;38052;45.944;13.624;2023-04-08T05:35:00;19.00;;;10.93;;
52041;SDS011;38052;45.944;13.624;2023-04-08T05:37:27;18.00;;;12.80;;
52041;SDS011;38052;45.944;13.624;2023-04-08T05:39:53;20.45;;;11.88;;
52041;SDS011;38052;45.944;13.624;2023-04-08T05:42:19;18.48;;;12.63;;
52041;SDS011;38052;45.944;13.624;2023-04-08T05:44:46;17.75;;;12.50;;
52041;SDS011;38052;45.944;13.624;2023-04-08T05:47:12;18.25;;;12.88;;
52041;SDS011;38052;45.944;13.624;2023-04-08T05:49:39;21.83;;;12.70;;
52041;SDS011;38052;45.944;13.624;2023-04-08T05:52:05;20.77;;;13.02;;
52041;SDS011;38052;45.944;13.624;2023-04-08T05:54:31;20.73;;;13.43;;
52041;SDS011;38052;45.944;13.624;2023-04-08T05:56:58;16.48;;;12.18;;
52041;SDS011;38052;45.944;13.624;2023-04-08T05:59:24;16.40;;;11.93;;
52041;SDS011;38052;45.944;13.624;2023-04-08T06:01:50;21.60;;;12.13;;
52041;SDS011;38052;45.944;13.624;2023-04-08T06:04:18;16.65;;;11.35;;
52041;SDS011;38052;45.944;13.624;2023-04-08T06:06:44;23.05;;;13.02;;
52041;SDS011;38052;45.944;13.624;2023-04-08T06:09:11;22.25;;;12.15;;
52041;SDS011;38052;45.944;13.624;2023-04-08T06:11:37;19.17;;;11.07;;
52041;SDS011;38052;45.944;13.624;2023-04-08T06:14:03;21.77;;;12.35;;
52041;SDS011;38052;45.944;13.624;2023-04-08T06:16:30;17.73;;;12.55;;
52041;SDS011;38052;45.944;13.624;2023-04-08T06:18:57;19.15;;;12.88;;
52041;SDS011;38052;45.944;13.624;2023-04-08T06:21:23;18.50;;;12.13;;
52041;SDS011;38052;45.944;13.624;2023-04-08T06:23:50;17.25;;;11.00;;
52041;SDS011;38052;45.944;13.624;2023-04-08T06:26:17;15.90;;;12.48;;
52041;SDS011;38052;45.944;13.624;2023-04-08T06:28:43;17.65;;;12.50;;
52041;SDS011;38052;45.944;13.624;2023-04-08T06:31:09;18.27;;;13.48;;
52041;SDS011;38052;45.944;13.624;2023-04-08T06:33:35;17.73;;;12.15;;
52041;SDS011;38052;45.944;13.624;2023-04-08T06:36:03;17.08;;;11.95;;
52041;SDS011;38052;45.944;13.624;2023-04-08T06:38:30;19.10;;;12.70;;
52041;SDS011;38052;45.944;13.624;2023-04-08T06:41:00;18.67;;;11.93;;
52041;SDS011;38052;45.944;13.624;2023-04-08T06:43:26;16.63;;;10.40;;
52041;SDS011;38052;45.944;13.624;2023-04-08T06:45:53;17.35;;;11.93;;
52041;SDS011;38052;45.944;13.624;2023-04-08T06:48:19;16.30;;;11.18;;
52041;SDS011;38052;45.944;13.624;2023-04-08T06:50:47;16.17;;;11.30;;
52041;SDS011;38052;45.944;13.624;2023-04-08T06:53:14;17.90;;;11.27;;
52041;SDS011;38052;45.944;13.624;2023-04-08T06:55:40;18.73;;;12.10;;
52041;SDS011;38052;45.944;13.624;2023-04-08T06:58:06;21.20;;;12.45;;
52041;SDS011;38052;45.944;13.624;2023-04-08T07:00:33;17.98;;;11.98;;
52041;SDS011;38052;45.944;13.624;2023-04-08T07:02:59;17.23;;;12.80;;
52041;SDS011;38052;45.944;13.624;2023-04-08T07:05:26;20.80;;;12.82;;
52041;SDS011;38052;45.944;13.624;2023-04-08T07:07:52;16.90;;;12.65;;
52041;SDS011;38052;45.944;13.624;2023-04-08T07:10:18;20.90;;;12.13;;
52041;SDS011;38052;45.944;13.624;2023-04-08T07:12:45;17.00;;;13.18;;
52041;SDS011;38052;45.944;13.624;2023-04-08T07:15:11;14.80;;;11.52;;
52041;SDS011;38052;45.944;13.624;2023-04-08T07:17:38;17.90;;;11.95;;
52041;SDS011;38052;45.944;13.624;2023-04-08T07:20:05;20.92;;;12.23;;
52041;SDS011;38052;45.944;13.624;2023-04-08T07:22:31;19.42;;;11.77;;
52041;SDS011;38052;45.944;13.624;2023-04-08T07:24:58;19.02;;;13.43;;
52041;SDS011;38052;45.944;13.624;2023-04-08T07:27:24;22.48;;;12.60;;
52041;SDS011;38052;45.944;13.624;2023-04-08T07:29:51;18.55;;;13.07;;
52041;SDS011;38052;45.944;13.624;2023-04-08T07:32:18;22.05;;;12.15;;
52041;SDS011;38052;45.944;13.624;2023-04-08T07:34:45;24.42;;;15.10;;
52041;SDS011;38052;45.944;13.624;2023-04-08T07:37:11;22.10;;;14.02;;
52041;SDS011;38052;45.944;13.624;2023-04-08T07:39:38;20.95;;;14.45;;
52041;SDS011;38052;45.944;13.624;2023-04-08T07:42:04;22.83;;;12.95;;
52041;SDS011;38052;45.944;13.624;2023-04-08T07:44:31;20.63;;;13.48;;
52041;SDS011;38052;45.944;13.624;2023-04-08T07:46:57;22.33;;;13.18;;
52041;SDS011;38052;45.944;13.624;2023-04-08T07:49:24;21.13;;;10.68;;
52041;SDS011;38052;45.944;13.624;2023-04-08T07:51:50;21.67;;;12.07;;
52041;SDS011;38052;45.944;13.624;2023-04-08T07:54:17;21.48;;;11.60;;
52041;SDS011;38052;45.944;13.624;2023-04-08T07:56:43;18.58;;;11.98;;
52041;SDS011;38052;45.944;13.624;2023-04-08T07:59:10;19.15;;;11.07;;
52041;SDS011;38052;45.944;13.624;2023-04-08T08:01:36;19.85;;;12.88;;
52041;SDS011;38052;45.944;13.624;2023-04-08T08:04:03;15.90;;;11.50;;
52041;SDS011;38052;45.944;13.624;2023-04-08T08:06:29;15.38;;;11.40;;
52041;SDS011;38052;45.944;13.624;2023-04-08T08:08:59;21.35;;;12.10;;
52041;SDS011;38052;45.944;13.624;2023-04-08T08:11:25;19.20;;;10.20;;
52041;SDS011;38052;45.944;13.624;2023-04-08T08:13:52;18.10;;;10.52;;
52041;SDS011;38052;45.944;13.624;2023-04-08T08:16:18;17.33;;;11.02;;
52041;SDS011;38052;45.944;13.624;2023-04-08T08:18:44;17.45;;;10.95;;
52041;SDS011;38052;45.944;13.624;2023-04-08T08:21:11;16.98;;;10.65;;
52041;SDS011;38052;45.944;13.624;2023-04-08T08:23:37;18.52;;;11.82;;
52041;SDS011;38052;45.944;13.624;2023-04-08T08:26:04;18.50;;;11.75;;
52041;SDS011;38052;45.944;13.624;2023-04-08T08:28:31;16.85;;;10.25;;
52041;SDS011;38052;45.944;13.624;2023-04-08T08:30:57;16.25;;;10.02;;
52041;SDS011;38052;45.944;13.624;2023-04-08T08:33:24;16.17;;;10.07;;
52041;SDS011;38052;45.944;13.624;2023-04-08T08:35:50;17.65;;;9.95;;
52041;SDS011;38052;45.944;13.624;2023-04-08T08:38:17;17.40;;;10.90;;
52041;SDS011;38052;45.944;13.624;2023-04-08T08:40:44;21.90;;;10.93;;
52041;SDS011;38052;45.944;13.624;2023-04-08T08:43:10;15.70;;;10.02;;
52041;SDS011;38052;45.944;13.624;2023-04-08T08:45:42;15.90;;;11.02;;
52041;SDS011;38052;45.944;13.624;2023-04-08T08:48:09;17.38;;;11.48;;
52041;SDS011;38052;45.944;13.624;2023-04-08T08:50:35;15.93;;;10.98;;
52041;SDS011;38052;45.944;13.624;2023-04-08T08:53:01;16.77;;;10.18;;
52041;SDS011;38052;45.944;13.624;2023-04-08T08:55:29;15.38;;;10.75;;
52041;SDS011;38052;45.944;13.624;2023-04-08T08:57:56;14.07;;;7.18;;
52041;SDS011;38052;45.944;13.624;2023-04-08T09:05:46;12.30;;;6.60;;
52041;SDS011;38052;45.944;13.624;2023-04-08T09:11:19;6.05;;;3.58;;
52041;SDS011;38052;45.944;13.624;2023-04-08T09:13:44;7.15;;;4.18;;
52041;SDS011;38052;45.944;13.624;2023-04-08T09:16:11;6.25;;;3.70;;
52041;SDS011;38052;45.944;13.624;2023-04-08T09:18:38;6.32;;;3.22;;
52041;SDS011;38052;45.944;13.624;2023-04-08T09:21:05;8.00;;;3.22;;
52041;SDS011;38052;45.944;13.624;2023-04-08T09:26:08;6.35;;;2.92;;
52041;SDS011;38052;45.944;13.624;2023-04-08T09:28:34;6.47;;;3.20;;
52041;SDS011;38052;45.944;13.624;2023-04-08T09:31:03;5.50;;;3.33;;
52041;SDS011;38052;45.944;13.624;2023-04-08T09:33:34;4.22;;;3.58;;
52041;SDS011;38052;45.944;13.624;2023-04-08T09:36:01;8.20;;;3.88;;
52041;SDS011;38052;45.944;13.624;2023-04-08T09:38:27;6.40;;;3.80;;
52041;SDS011;38052;45.944;13.624;2023-04-08T09:40:54;7.10;;;4.32;;
52041;SDS011;38052;45.944;13.624;2023-04-08T09:43:20;5.57;;;3.65;;
52041;SDS011;38052;45.944;13.624;2023-04-08T09:45:49;6.22;;;3.47;;
52041;SDS011;38052;45.944;13.624;2023-04-08T09:48:21;6.65;;;4.03;;
52041;SDS011;38052;45.944;13.624;2023-04-08T09:50:49;6.97;;;3.67;;
52041;SDS011;38052;45.944;13.624;2023-04-08T09:53:25;6.43;;;4.00;;
52041;SDS011;38052;45.944;13.624;2023-04-08T09:55:54;7.90;;;3.67;;
52041;SDS011;38052;45.944;13.624;2023-04-08T09:58:24;6.22;;;4.00;;
52041;SDS011;38052;45.944;13.624;2023-04-08T10:03:28;7.45;;;4.35;;
52041;SDS011;38052;45.944;13.624;2023-04-08T10:05:55;5.40;;;3.97;;
52041;SDS011;38052;45.944;13.624;2023-04-08T10:08:23;6.53;;;3.95;;
52041;SDS011;38052;45.944;13.624;2023-04-08T10:10:51;9.02;;;4.45;;
52041;SDS011;38052;45.944;13.624;2023-04-08T10:13:18;7.15;;;4.35;;
52041;SDS011;38052;45.944;13.624;2023-04-08T10:15:44;5.25;;;3.35;;
52041;SDS011;38052;45.944;13.624;2023-04-08T10:20:45;7.32;;;4.07;;
52041;SDS011;38052;45.944;13.624;2023-04-08T10:23:13;10.18;;;4.88;;
52041;SDS011;38052;45.944;13.624;2023-04-08T10:25:40;7.70;;;4.43;;
52041;SDS011;38052;45.944;13.624;2023-04-08T10:30:51;7.40;;;4.75;;
52041;SDS011;38052;45.944;13.624;2023-04-08T10:33:30;12.32;;;4.72;;
52041;SDS011;38052;45.944;13.624;2023-04-08T10:35:59;9.10;;;5.38;;
52041;SDS011;38052;45.944;13.624;2023-04-08T10:38:26;10.10;;;5.43;;
52041;SDS011;38052;45.944;13.624;2023-04-08T10:40:53;8.30;;;4.93;;
52041;SDS011;38052;45.944;13.624;2023-04-08T10:43:19;8.57;;;5.78;;
52041;SDS011;38052;45.944;13.624;2023-04-08T10:45:46;8.70;;;5.10;;
52041;SDS011;38052;45.944;13.624;2023-04-08T10:50:42;7.97;;;4.70;;
52041;SDS011;38052;45.944;13.624;2023-04-08T10:53:09;6.78;;;4.38;;
52041;SDS011;38052;45.944;13.624;2023-04-08T10:55:35;8.73;;;3.58;;
52041;SDS011;38052;45.944;13.624;2023-04-08T10:58:08;7.75;;;3.75;;
52041;SDS011;38052;45.944;13.624;2023-04-08T11:00:36;7.28;;;3.53;;
52041;SDS011;38052;45.944;13.624;2023-04-08T11:03:03;9.23;;;3.95;;
52041;SDS011;38052;45.944;13.624;2023-04-08T11:05:29;8.70;;;3.17;;
52041;SDS011;38052;45.944;13.624;2023-04-08T11:07:55;6.63;;;3.97;;
52041;SDS011;38052;45.944;13.624;2023-04-08T11:10:22;6.35;;;3.35;;
52041;SDS011;38052;45.944;13.624;2023-04-08T11:12:50;7.90;;;4.00;;
52041;SDS011;38052;45.944;13.624;2023-04-08T11:15:18;5.60;;;3.15;;
52041;SDS011;38052;45.944;13.624;2023-04-08T11:17:45;6.28;;;4.43;;
52041;SDS011;38052;45.944;13.624;2023-04-08T11:20:12;8.73;;;4.07;;
52041;SDS011;38052;45.944;13.624;2023-04-08T11:22:39;6.63;;;4.03;;
52041;SDS011;38052;45.944;13.624;2023-04-08T11:25:06;6.97;;;3.60;;
52041;SDS011;38052;45.944;13.624;2023-04-08T11:27:34;7.60;;;3.17;;
52041;SDS011;38052;45.944;13.624;2023-04-08T11:30:01;9.63;;;3.35;;
52041;SDS011;38052;45.944;13.624;2023-04-08T11:32:27;10.65;;;4.25;;
52041;SDS011;38052;45.944;13.624;2023-04-08T11:34:54;5.70;;;3.42;;
52041;SDS011;38052;45.944;13.624;2023-04-08T11:37:20;5.00;;;3.25;;
52041;SDS011;38052;45.944;13.624;2023-04-08T11:39:50;11.18;;;3.85;;
52041;SDS011;38052;45.944;13.624;2023-04-08T11:44:53;5.65;;;2.92;;
52041;SDS011;38052;45.944;13.624;2023-04-08T11:47:19;5.75;;;3.38;;
52041;SDS011;38052;45.944;13.624;2023-04-08T11:49:46;5.05;;;2.97;;
52041;SDS011;38052;45.944;13.624;2023-04-08T11:52:12;4.82;;;2.75;;
52041;SDS011;38052;45.944;13.624;2023-04-08T11:54:40;7.72;;;3.63;;
52041;SDS011;38052;45.944;13.624;2023-04-08T11:57:06;5.05;;;2.72;;
52041;SDS011;38052;45.944;13.624;2023-04-08T11:59:36;7.10;;;3.47;;
52041;SDS011;38052;45.944;13.624;2023-04-08T12:02:03;8.77;;;3.60;;
52041;SDS011;38052;45.944;13.624;2023-04-08T12:04:29;6.97;;;3.08;;
52041;SDS011;38052;45.944;13.624;2023-04-08T12:06:56;11.80;;;5.20;;
52041;SDS011;38052;45.944;13.624;2023-04-08T12:09:22;6.00;;;3.50;;
52041;SDS011;38052;45.944;13.624;2023-04-08T12:11:48;8.40;;;4.32;;
52041;SDS011;38052;45.944;13.624;2023-04-08T12:14:14;6.65;;;4.63;;
52041;SDS011;38052;45.944;13.624;2023-04-08T12:16:41;8.00;;;4.15;;
52041;SDS011;38052;45.944;13.624;2023-04-08T12:19:08;7.65;;;3.35;;
52041;SDS011;38052;45.944;13.624;2023-04-08T12:21:34;5.10;;;3.08;;
52041;SDS011;38052;45.944;13.624;2023-04-08T12:24:01;5.28;;;3.15;;
52041;SDS011;38052;45.944;13.624;2023-04-08T12:26:27;5.00;;;3.17;;
52041;SDS011;38052;45.944;13.624;2023-04-08T12:28:53;5.78;;;2.72;;
52041;SDS011;38052;45.944;13.624;2023-04-08T12:31:20;6.97;;;3.22;;
52041;SDS011;38052;45.944;13.624;2023-04-08T12:33:47;7.00;;;3.42;;
52041;SDS011;38052;45.944;13.624;2023-04-08T12:36:13;6.30;;;2.90;;
52041;SDS011;38052;45.944;13.624;2023-04-08T12:38:39;5.25;;;2.75;;
52041;SDS011;38052;45.944;13.624;2023-04-08T12:41:06;5.85;;;2.97;;
52041;SDS011;38052;45.944;13.624;2023-04-08T12:43:32;8.25;;;2.97;;
52041;SDS011;38052;45.944;13.624;2023-04-08T12:45:58;3.72;;;2.30;;
52041;SDS011;38052;45.944;13.624;2023-04-08T12:48:26;7.05;;;2.90;;
52041;SDS011;38052;45.944;13.624;2023-04-08T12:50:52;10.55;;;5.13;;
52041;SDS011;38052;45.944;13.624;2023-04-08T12:53:19;4.30;;;3.10;;
52041;SDS011;38052;45.944;13.624;2023-04-08T12:55:45;6.50;;;2.83;;
52041;SDS011;38052;45.944;13.624;2023-04-08T12:58:11;4.57;;;2.80;;
52041;SDS011;38052;45.944;13.624;2023-04-08T13:00:38;4.88;;;2.95;;
52041;SDS011;38052;45.944;13.624;2023-04-08T13:03:06;4.43;;;2.85;;
52041;SDS011;38052;45.944;13.624;2023-04-08T13:05:32;4.63;;;2.65;;
52041;SDS011;38052;45.944;13.624;2023-04-08T13:07:58;6.70;;;3.05;;
52041;SDS011;38052;45.944;13.624;2023-04-08T13:10:24;8.95;;;2.70;;
52041;SDS011;38052;45.944;13.624;2023-04-08T13:12:51;6.15;;;3.25;;
52041;SDS011;38052;45.944;13.624;2023-04-08T13:15:17;6.05;;;3.03;;
52041;SDS011;38052;45.944;13.624;2023-04-08T13:17:43;6.00;;;3.13;;
52041;SDS011;38052;45.944;13.624;2023-04-08T13:20:10;5.72;;;3.03;;
52041;SDS011;38052;45.944;13.624;2023-04-08T13:22:36;9.20;;;3.60;;
52041;SDS011;38052;45.944;13.624;2023-04-08T13:25:03;7.72;;;2.67;;
52041;SDS011;38052;45.944;13.624;2023-04-08T13:27:30;8.63;;;3.25;;
52041;SDS011;38052;45.944;13.624;2023-04-08T13:29:56;5.50;;;3.30;;
52041;SDS011;38052;45.944;13.624;2023-04-08T13:32:23;6.00;;;3.63;;
52041;SDS011;38052;45.944;13.624;2023-04-08T13:34:49;5.93;;;3.47;;
52041;SDS011;38052;45.944;13.624;2023-04-08T13:37:16;6.75;;;3.20;;
52041;SDS011;38052;45.944;13.624;2023-04-08T13:39:42;6.15;;;3.78;;
52041;SDS011;38052;45.944;13.624;2023-04-08T13:42:08;4.18;;;3.10;;
52041;SDS011;38052;45.944;13.624;2023-04-08T13:44:35;5.88;;;3.95;;
52041;SDS011;38052;45.944;13.624;2023-04-08T13:47:01;6.07;;;3.22;;
52041;SDS011;38052;45.944;13.624;2023-04-08T13:49:28;6.15;;;3.47;;
52041;SDS011;38052;45.944;13.624;2023-04-08T13:51:54;5.85;;;3.47;;
52041;SDS011;38052;45.944;13.624;2023-04-08T13:54:21;6.60;;;3.78;;
52041;SDS011;38052;45.944;13.624;2023-04-08T13:56:48;7.13;;;3.50;;
52041;SDS011;38052;45.944;13.624;2023-04-08T13:59:14;4.95;;;3.58;;
52041;SDS011;38052;45.944;13.624;2023-04-08T14:01:40;5.65;;;3.65;;
52041;SDS011;38052;45.944;13.624;2023-04-08T14:04:06;7.40;;;4.32;;
52041;SDS011;38052;45.944;13.624;2023-04-08T14:06:33;7.00;;;3.75;;
52041;SDS011;38052;45.944;13.624;2023-04-08T14:09:00;8.50;;;4.40;;
52041;SDS011;38052;45.944;13.624;2023-04-08T14:11:27;6.72;;;4.32;;
52041;SDS011;38052;45.944;13.624;2023-04-08T14:13:53;8.02;;;4.72;;
52041;SDS011;38052;45.944;13.624;2023-04-08T14:16:20;7.50;;;3.65;;
52041;SDS011;38052;45.944;13.624;2023-04-08T14:18:46;6.18;;;3.78;;
52041;SDS011;38052;45.944;13.624;2023-04-08T14:21:13;6.65;;;3.90;;
52041;SDS011;38052;45.944;13.624;2023-04-08T14:23:40;8.95;;;4.25;;
52041;SDS011;38052;45.944;13.624;2023-04-08T14:26:06;6.90;;;4.75;;
52041;SDS011;38052;45.944;13.624;2023-04-08T14:28:33;9.88;;;4.90;;
52041;SDS011;38052;45.944;13.624;2023-04-08T14:30:59;7.20;;;4.22;;
52041;SDS011;38052;45.944;13.624;2023-04-08T14:33:27;5.88;;;4.03;;
52041;SDS011;38052;45.944;13.624;2023-04-08T14:35:54;6.80;;;4.10;;
52041;SDS011;38052;45.944;13.624;2023-04-08T14:38:21;6.32;;;3.80;;
52041;SDS011;38052;45.944;13.624;2023-04-08T14:40:47;6.45;;;3.55;;
52041;SDS011;38052;45.944;13.624;2023-04-08T14:43:13;9.07;;;3.90;;
52041;SDS011;38052;45.944;13.624;2023-04-08T14:45:40;6.38;;;3.30;;
52041;SDS011;38052;45.944;13.624;2023-04-08T14:48:06;6.72;;;4.10;;
52041;SDS011;38052;45.944;13.624;2023-04-08T14:50:33;8.23;;;3.50;;